sensor_id;sensor_type;location;lat;lon;timestamp;temperature;humidity
34833;DHT22;55941;50.800;4.342;2023-05-19T00:01:31;12.10;94.00
34833;DHT22;55941;50.800;4.342;2023-05-19T00:03:58;12.00;94.40
34833;DHT22;55941;50.800;4.342;2023-05-19T00:06:29;12.00;94.40
34833;DHT22;55941;50.800;4.342;2023-05-19T00:09:07;12.10;94.50
34833;DHT22;55941;50.800;4.342;2023-05-19T00:11:34;12.00;94.70
34833;DHT22;55941;50.800;4.342;2023-05-19T00:14:01;11.90;95.10
34833;DHT22;55941;50.800;4.342;2023-05-19T00:16:28;11.90;95.40
34833;DHT22;55941;50.800;4.342;2023-05-19T00:18:56;11.80;95.40
34833;DHT22;55941;50.800;4.342;2023-05-19T00:21:23;11.80;95.60
34833;DHT22;55941;50.800;4.342;2023-05-19T00:23:49;11.80;95.90
34833;DHT22;55941;50.800;4.342;2023-05-19T00:26:14;11.80;95.90
34833;DHT22;55941;50.800;4.342;2023-05-19T00:28:41;11.80;96.10
34833;DHT22;55941;50.800;4.342;2023-05-19T00:31:07;11.70;96.20
34833;DHT22;55941;50.800;4.342;2023-05-19T00:33:33;11.70;96.30
34833;DHT22;55941;50.800;4.342;2023-05-19T00:36:02;11.70;96.50
34833;DHT22;55941;50.800;4.342;2023-05-19T00:38:30;11.70;96.60
34833;DHT22;55941;50.800;4.342;2023-05-19T00:40:56;11.70;96.80
34833;DHT22;55941;50.800;4.342;2023-05-19T00:43:22;11.70;96.90
34833;DHT22;55941;50.800;4.342;2023-05-19T00:45:49;11.70;97.00
34833;DHT22;55941;50.800;4.342;2023-05-19T00:48:15;11.70;97.10
34833;DHT22;55941;50.800;4.342;2023-05-19T00:50:41;11.80;97.20
34833;DHT22;55941;50.800;4.342;2023-05-19T00:53:07;11.70;97.10
34833;DHT22;55941;50.800;4.342;2023-05-19T00:55:34;11.70;97.30
34833;DHT22;55941;50.800;4.342;2023-05-19T00:58:03;11.70;97.40
34833;DHT22;55941;50.800;4.342;2023-05-19T01:00:30;11.60;97.80
34833;DHT22;55941;50.800;4.342;2023-05-19T01:02:56;11.60;98.00
34833;DHT22;55941;50.800;4.342;2023-05-19T01:05:22;11.60;98.10
34833;DHT22;55941;50.800;4.342;2023-05-19T01:07:48;11.50;98.30
34833;DHT22;55941;50.800;4.342;2023-05-19T01:10:19;11.50;98.70
34833;DHT22;55941;50.800;4.342;2023-05-19T01:12:45;11.50;98.80
34833;DHT22;55941;50.800;4.342;2023-05-19T01:15:12;11.40;98.90
34833;DHT22;55941;50.800;4.342;2023-05-19T01:17:55;11.30;99.10
34833;DHT22;55941;50.800;4.342;2023-05-19T01:20:47;11.30;99.20
34833;DHT22;55941;50.800;4.342;2023-05-19T01:23:19;11.30;99.20
34833;DHT22;55941;50.800;4.342;2023-05-19T01:26:10;11.40;99.50
34833;DHT22;55941;50.800;4.342;2023-05-19T01:31:32;11.10;99.90
34833;DHT22;55941;50.800;4.342;2023-05-19T01:33:59;11.10;99.90
34833;DHT22;55941;50.800;4.342;2023-05-19T01:36:26;11.00;99.90
34833;DHT22;55941;50.800;4.342;2023-05-19T01:38:55;10.90;99.90
34833;DHT22;55941;50.800;4.342;2023-05-19T01:41:22;10.90;99.90
34833;DHT22;55941;50.800;4.342;2023-05-19T01:43:49;10.90;99.90
34833;DHT22;55941;50.800;4.342;2023-05-19T01:46:16;10.90;99.90
34833;DHT22;55941;50.800;4.342;2023-05-19T01:48:43;11.10;99.90
34833;DHT22;55941;50.800;4.342;2023-05-19T01:51:09;11.00;99.90
34833;DHT22;55941;50.800;4.342;2023-05-19T01:53:36;11.00;99.90
34833;DHT22;55941;50.800;4.342;2023-05-19T01:56:03;10.90;99.90
34833;DHT22;55941;50.800;4.342;2023-05-19T01:58:44;10.90;99.90
34833;DHT22;55941;50.800;4.342;2023-05-19T02:04:12;10.70;99.90
34833;DHT22;55941;50.800;4.342;2023-05-19T02:09:46;10.80;99.90
34833;DHT22;55941;50.800;4.342;2023-05-19T02:12:28;10.70;99.90
34833;DHT22;55941;50.800;4.342;2023-05-19T02:15:02;10.70;99.90
34833;DHT22;55941;50.800;4.342;2023-05-19T02:17:31;10.70;99.90
34833;DHT22;55941;50.800;4.342;2023-05-19T02:19:58;10.70;99.90
34833;DHT22;55941;50.800;4.342;2023-05-19T02:22:24;10.60;99.90
34833;DHT22;55941;50.800;4.342;2023-05-19T02:24:49;10.70;99.90
34833;DHT22;55941;50.800;4.342;2023-05-19T02:27:17;10.70;99.90
34833;DHT22;55941;50.800;4.342;2023-05-19T02:29:43;10.50;99.90
34833;DHT22;55941;50.800;4.342;2023-05-19T02:32:10;10.50;99.90
34833;DHT22;55941;50.800;4.342;2023-05-19T02:34:36;10.60;99.90
34833;DHT22;55941;50.800;4.342;2023-05-19T02:37:01;10.60;99.90
34833;DHT22;55941;50.800;4.342;2023-05-19T02:39:27;10.50;99.90
34833;DHT22;55941;50.800;4.342;2023-05-19T02:41:56;10.50;99.90
34833;DHT22;55941;50.800;4.342;2023-05-19T02:44:22;10.50;99.90
34833;DHT22;55941;50.800;4.342;2023-05-19T02:46:48;10.40;99.90
34833;DHT22;55941;50.800;4.342;2023-05-19T02:49:13;10.40;99.90
34833;DHT22;55941;50.800;4.342;2023-05-19T02:51:39;10.30;99.90
34833;DHT22;55941;50.800;4.342;2023-05-19T02:54:05;10.30;99.90
34833;DHT22;55941;50.800;4.342;2023-05-19T02:56:31;10.30;99.90
34833;DHT22;55941;50.800;4.342;2023-05-19T02:58:57;10.40;99.90
34833;DHT22;55941;50.800;4.342;2023-05-19T03:01:22;10.30;99.90
34833;DHT22;55941;50.800;4.342;2023-05-19T03:03:48;10.20;99.90
34833;DHT22;55941;50.800;4.342;2023-05-19T03:06:14;10.20;99.90
34833;DHT22;55941;50.800;4.342;2023-05-19T03:08:42;10.00;99.90
34833;DHT22;55941;50.800;4.342;2023-05-19T03:11:08;10.00;99.90
34833;DHT22;55941;50.800;4.342;2023-05-19T03:13:34;9.80;99.90
34833;DHT22;55941;50.800;4.342;2023-05-19T03:16:00;9.90;99.90
34833;DHT22;55941;50.800;4.342;2023-05-19T03:18:26;9.90;99.90
34833;DHT22;55941;50.800;4.342;2023-05-19T03:20:52;10.00;99.90
34833;DHT22;55941;50.800;4.342;2023-05-19T03:23:20;10.00;99.90
34833;DHT22;55941;50.800;4.342;2023-05-19T03:25:45;10.00;99.90
34833;DHT22;55941;50.800;4.342;2023-05-19T03:28:11;10.10;99.90
34833;DHT22;55941;50.800;4.342;2023-05-19T03:30:37;9.90;99.90
34833;DHT22;55941;50.800;4.342;2023-05-19T03:33:02;9.90;99.90
34833;DHT22;55941;50.800;4.342;2023-05-19T03:35:29;9.80;99.90
34833;DHT22;55941;50.800;4.342;2023-05-19T03:37:55;9.90;99.90
34833;DHT22;55941;50.800;4.342;2023-05-19T03:40:21;9.90;99.90
34833;DHT22;55941;50.800;4.342;2023-05-19T03:42:46;9.80;99.90
34833;DHT22;55941;50.800;4.342;2023-05-19T03:45:12;9.70;99.90
34833;DHT22;55941;50.800;4.342;2023-05-19T03:47:39;9.70;99.90
34833;DHT22;55941;50.800;4.342;2023-05-19T03:50:06;9.60;99.90
34833;DHT22;55941;50.800;4.342;2023-05-19T03:52:31;9.70;99.90
34833;DHT22;55941;50.800;4.342;2023-05-19T03:54:58;9.80;99.90
34833;DHT22;55941;50.800;4.342;2023-05-19T03:57:23;9.90;99.90
34833;DHT22;55941;50.800;4.342;2023-05-19T03:59:49;9.90;99.90
34833;DHT22;55941;50.800;4.342;2023-05-19T04:02:15;10.00;99.90
34833;DHT22;55941;50.800;4.342;2023-05-19T04:04:41;10.00;99.90
34833;DHT22;55941;50.800;4.342;2023-05-19T04:07:06;9.90;99.90
34833;DHT22;55941;50.800;4.342;2023-05-19T04:09:32;10.00;99.90
34833;DHT22;55941;50.800;4.342;2023-05-19T04:12:00;9.90;99.90
34833;DHT22;55941;50.800;4.342;2023-05-19T04:14:27;9.90;99.90
34833;DHT22;55941;50.800;4.342;2023-05-19T04:16:53;9.80;99.90
34833;DHT22;55941;50.800;4.342;2023-05-19T04:19:19;9.90;99.90
34833;DHT22;55941;50.800;4.342;2023-05-19T04:21:45;9.90;99.90
34833;DHT22;55941;50.800;4.342;2023-05-19T04:24:11;9.80;99.90
34833;DHT22;55941;50.800;4.342;2023-05-19T04:26:38;9.80;99.90
34833;DHT22;55941;50.800;4.342;2023-05-19T04:29:07;9.80;99.90
34833;DHT22;55941;50.800;4.342;2023-05-19T04:31:33;9.80;99.90
34833;DHT22;55941;50.800;4.342;2023-05-19T04:34:00;9.80;99.90
34833;DHT22;55941;50.800;4.342;2023-05-19T04:36:26;9.80;99.90
34833;DHT22;55941;50.800;4.342;2023-05-19T04:38:52;9.60;99.90
34833;DHT22;55941;50.800;4.342;2023-05-19T04:41:19;9.70;99.90
34833;DHT22;55941;50.800;4.342;2023-05-19T04:43:46;9.80;99.90
34833;DHT22;55941;50.800;4.342;2023-05-19T04:46:13;9.80;99.90
34833;DHT22;55941;50.800;4.342;2023-05-19T04:48:39;9.80;99.90
34833;DHT22;55941;50.800;4.342;2023-05-19T04:51:06;9.80;99.90
34833;DHT22;55941;50.800;4.342;2023-05-19T04:53:32;10.00;99.90
34833;DHT22;55941;50.800;4.342;2023-05-19T04:56:00;10.00;99.90
34833;DHT22;55941;50.800;4.342;2023-05-19T04:58:28;10.00;99.90
34833;DHT22;55941;50.800;4.342;2023-05-19T05:00:54;10.00;99.90
34833;DHT22;55941;50.800;4.342;2023-05-19T05:03:20;10.00;99.90
34833;DHT22;55941;50.800;4.342;2023-05-19T05:05:50;10.00;99.90
34833;DHT22;55941;50.800;4.342;2023-05-19T05:08:17;10.10;99.90
34833;DHT22;55941;50.800;4.342;2023-05-19T05:10:51;10.00;99.90
34833;DHT22;55941;50.800;4.342;2023-05-19T05:13:21;10.20;99.90
34833;DHT22;55941;50.800;4.342;2023-05-19T05:15:47;10.20;99.90
34833;DHT22;55941;50.800;4.342;2023-05-19T05:18:14;10.30;99.90
34833;DHT22;55941;50.800;4.342;2023-05-19T05:20:42;10.40;99.90
34833;DHT22;55941;50.800;4.342;2023-05-19T05:23:09;10.50;99.90
34833;DHT22;55941;50.800;4.342;2023-05-19T05:25:37;10.50;99.90
34833;DHT22;55941;50.800;4.342;2023-05-19T05:28:03;10.50;99.90
34833;DHT22;55941;50.800;4.342;2023-05-19T05:30:30;10.50;99.90
34833;DHT22;55941;50.800;4.342;2023-05-19T05:32:56;10.50;99.90
34833;DHT22;55941;50.800;4.342;2023-05-19T05:35:22;10.50;99.90
34833;DHT22;55941;50.800;4.342;2023-05-19T05:37:48;10.50;99.90
34833;DHT22;55941;50.800;4.342;2023-05-19T05:40:15;10.60;99.90
34833;DHT22;55941;50.800;4.342;2023-05-19T05:42:42;10.70;99.90
34833;DHT22;55941;50.800;4.342;2023-05-19T05:45:10;10.90;99.90
34833;DHT22;55941;50.800;4.342;2023-05-19T05:47:36;10.90;99.90
34833;DHT22;55941;50.800;4.342;2023-05-19T05:50:07;10.80;99.90
34833;DHT22;55941;50.800;4.342;2023-05-19T05:52:35;10.90;99.90
34833;DHT22;55941;50.800;4.342;2023-05-19T05:55:04;10.90;99.90
34833;DHT22;55941;50.800;4.342;2023-05-19T05:57:31;11.10;99.90
34833;DHT22;55941;50.800;4.342;2023-05-19T05:59:59;11.20;99.90
34833;DHT22;55941;50.800;4.342;2023-05-19T06:02:26;11.30;99.90
34833;DHT22;55941;50.800;4.342;2023-05-19T06:04:52;11.30;99.90
34833;DHT22;55941;50.800;4.342;2023-05-19T06:07:19;11.30;99.90
34833;DHT22;55941;50.800;4.342;2023-05-19T06:09:45;11.30;99.90
34833;DHT22;55941;50.800;4.342;2023-05-19T06:12:11;11.30;99.90
34833;DHT22;55941;50.800;4.342;2023-05-19T06:14:37;11.30;99.90
34833;DHT22;55941;50.800;4.342;2023-05-19T06:17:03;11.30;99.90
34833;DHT22;55941;50.800;4.342;2023-05-19T06:19:29;11.50;99.90
34833;DHT22;55941;50.800;4.342;2023-05-19T06:21:55;11.50;99.90
34833;DHT22;55941;50.800;4.342;2023-05-19T06:24:21;11.60;99.90
34833;DHT22;55941;50.800;4.342;2023-05-19T06:26:47;11.60;99.90
34833;DHT22;55941;50.800;4.342;2023-05-19T06:29:13;11.70;99.90
34833;DHT22;55941;50.800;4.342;2023-05-19T06:31:40;11.70;99.90
34833;DHT22;55941;50.800;4.342;2023-05-19T06:34:05;11.80;99.90
34833;DHT22;55941;50.800;4.342;2023-05-19T06:36:31;11.80;99.90
34833;DHT22;55941;50.800;4.342;2023-05-19T06:38:59;11.80;99.90
34833;DHT22;55941;50.800;4.342;2023-05-19T06:41:25;11.90;99.90
34833;DHT22;55941;50.800;4.342;2023-05-19T06:43:50;11.90;99.90
34833;DHT22;55941;50.800;4.342;2023-05-19T06:46:16;12.00;99.90
34833;DHT22;55941;50.800;4.342;2023-05-19T06:48:42;12.10;99.90
34833;DHT22;55941;50.800;4.342;2023-05-19T06:51:08;12.10;99.90
34833;DHT22;55941;50.800;4.342;2023-05-19T06:53:34;12.20;99.90
34833;DHT22;55941;50.800;4.342;2023-05-19T06:56:00;12.30;99.90
34833;DHT22;55941;50.800;4.342;2023-05-19T06:58:26;12.40;99.90
34833;DHT22;55941;50.800;4.342;2023-05-19T07:00:52;12.60;99.90
34833;DHT22;55941;50.800;4.342;2023-05-19T07:03:17;12.60;99.90
34833;DHT22;55941;50.800;4.342;2023-05-19T07:05:43;12.60;99.90
34833;DHT22;55941;50.800;4.342;2023-05-19T07:08:09;12.60;99.90
34833;DHT22;55941;50.800;4.342;2023-05-19T07:10:35;12.70;99.90
34833;DHT22;55941;50.800;4.342;2023-05-19T07:13:00;12.80;99.90
34833;DHT22;55941;50.800;4.342;2023-05-19T07:15:26;13.00;99.90
34833;DHT22;55941;50.800;4.342;2023-05-19T07:17:52;13.10;99.90
34833;DHT22;55941;50.800;4.342;2023-05-19T07:20:18;13.00;99.90
34833;DHT22;55941;50.800;4.342;2023-05-19T07:22:43;13.10;99.90
34833;DHT22;55941;50.800;4.342;2023-05-19T07:25:11;13.30;99.90
34833;DHT22;55941;50.800;4.342;2023-05-19T07:27:37;13.40;99.90
34833;DHT22;55941;50.800;4.342;2023-05-19T07:30:03;13.40;99.90
34833;DHT22;55941;50.800;4.342;2023-05-19T07:32:29;13.50;99.90
34833;DHT22;55941;50.800;4.342;2023-05-19T07:34:55;13.50;99.90
34833;DHT22;55941;50.800;4.342;2023-05-19T07:37:21;13.50;99.90
34833;DHT22;55941;50.800;4.342;2023-05-19T07:39:48;13.40;99.90
34833;DHT22;55941;50.800;4.342;2023-05-19T07:42:15;13.50;99.90
34833;DHT22;55941;50.800;4.342;2023-05-19T07:44:41;13.50;99.90
34833;DHT22;55941;50.800;4.342;2023-05-19T07:47:10;13.60;99.90
34833;DHT22;55941;50.800;4.342;2023-05-19T07:49:35;13.80;99.90
34833;DHT22;55941;50.800;4.342;2023-05-19T07:52:02;14.00;99.90
34833;DHT22;55941;50.800;4.342;2023-05-19T07:54:28;14.10;99.90
34833;DHT22;55941;50.800;4.342;2023-05-19T07:56:53;14.10;99.90
34833;DHT22;55941;50.800;4.342;2023-05-19T07:59:19;14.20;99.90
34833;DHT22;55941;50.800;4.342;2023-05-19T08:01:46;14.20;99.90
34833;DHT22;55941;50.800;4.342;2023-05-19T08:04:11;14.20;99.90
34833;DHT22;55941;50.800;4.342;2023-05-19T08:06:38;14.40;99.90
34833;DHT22;55941;50.800;4.342;2023-05-19T08:09:04;14.60;99.90
34833;DHT22;55941;50.800;4.342;2023-05-19T08:11:30;14.60;99.90
34833;DHT22;55941;50.800;4.342;2023-05-19T08:13:55;14.70;99.90
34833;DHT22;55941;50.800;4.342;2023-05-19T08:16:21;14.80;99.90
34833;DHT22;55941;50.800;4.342;2023-05-19T08:18:47;14.80;99.90
34833;DHT22;55941;50.800;4.342;2023-05-19T08:21:13;14.90;99.90
34833;DHT22;55941;50.800;4.342;2023-05-19T08:23:39;14.90;99.90
34833;DHT22;55941;50.800;4.342;2023-05-19T08:26:05;14.90;99.90
34833;DHT22;55941;50.800;4.342;2023-05-19T08:28:32;14.90;99.90
34833;DHT22;55941;50.800;4.342;2023-05-19T08:30:58;15.00;99.90
34833;DHT22;55941;50.800;4.342;2023-05-19T08:33:24;15.20;99.90
34833;DHT22;55941;50.800;4.342;2023-05-19T08:35:50;15.30;99.90
34833;DHT22;55941;50.800;4.342;2023-05-19T08:38:15;15.40;99.90
34833;DHT22;55941;50.800;4.342;2023-05-19T08:40:42;15.50;99.90
34833;DHT22;55941;50.800;4.342;2023-05-19T08:43:08;15.60;99.90
34833;DHT22;55941;50.800;4.342;2023-05-19T08:45:34;15.70;99.90
34833;DHT22;55941;50.800;4.342;2023-05-19T08:48:00;16.00;99.30
34833;DHT22;55941;50.800;4.342;2023-05-19T08:50:30;16.00;98.80
34833;DHT22;55941;50.800;4.342;2023-05-19T08:53:11;16.00;99.10
34833;DHT22;55941;50.800;4.342;2023-05-19T08:58:13;16.10;99.20
34833;DHT22;55941;50.800;4.342;2023-05-19T09:00:41;16.20;98.90
34833;DHT22;55941;50.800;4.342;2023-05-19T09:03:07;16.30;97.90
34833;DHT22;55941;50.800;4.342;2023-05-19T09:05:33;16.40;97.30
34833;DHT22;55941;50.800;4.342;2023-05-19T09:08:02;16.60;97.50
34833;DHT22;55941;50.800;4.342;2023-05-19T09:10:29;16.60;97.50
34833;DHT22;55941;50.800;4.342;2023-05-19T09:12:55;16.60;96.90
34833;DHT22;55941;50.800;4.342;2023-05-19T09:15:25;16.70;95.50
34833;DHT22;55941;50.800;4.342;2023-05-19T09:18:04;16.70;95.80
34833;DHT22;55941;50.800;4.342;2023-05-19T09:20:31;16.60;96.60
34833;DHT22;55941;50.800;4.342;2023-05-19T09:22:58;16.60;96.80
34833;DHT22;55941;50.800;4.342;2023-05-19T09:25:25;16.80;96.40
34833;DHT22;55941;50.800;4.342;2023-05-19T09:27:53;17.00;95.60
34833;DHT22;55941;50.800;4.342;2023-05-19T09:30:19;17.20;95.40
34833;DHT22;55941;50.800;4.342;2023-05-19T09:32:46;17.20;94.70
34833;DHT22;55941;50.800;4.342;2023-05-19T09:35:12;17.00;95.60
34833;DHT22;55941;50.800;4.342;2023-05-19T09:37:42;17.20;94.80
34833;DHT22;55941;50.800;4.342;2023-05-19T09:40:09;17.20;95.00
34833;DHT22;55941;50.800;4.342;2023-05-19T09:42:39;17.30;95.00
34833;DHT22;55941;50.800;4.342;2023-05-19T09:45:06;17.40;94.40
34833;DHT22;55941;50.800;4.342;2023-05-19T09:47:39;17.30;93.80
34833;DHT22;55941;50.800;4.342;2023-05-19T09:50:07;17.40;92.50
34833;DHT22;55941;50.800;4.342;2023-05-19T09:52:42;17.50;92.70
34833;DHT22;55941;50.800;4.342;2023-05-19T09:55:10;17.60;92.40
34833;DHT22;55941;50.800;4.342;2023-05-19T09:57:38;17.60;93.50
34833;DHT22;55941;50.800;4.342;2023-05-19T10:00:06;17.70;93.70
34833;DHT22;55941;50.800;4.342;2023-05-19T10:02:50;17.70;93.70
34833;DHT22;55941;50.800;4.342;2023-05-19T10:05:18;17.80;92.50
34833;DHT22;55941;50.800;4.342;2023-05-19T10:07:52;17.70;93.50
34833;DHT22;55941;50.800;4.342;2023-05-19T10:10:20;17.80;92.50
34833;DHT22;55941;50.800;4.342;2023-05-19T10:12:47;17.90;92.10
34833;DHT22;55941;50.800;4.342;2023-05-19T10:15:15;18.00;91.20
34833;DHT22;55941;50.800;4.342;2023-05-19T10:17:42;18.00;91.60
34833;DHT22;55941;50.800;4.342;2023-05-19T10:20:13;18.10;90.80
34833;DHT22;55941;50.800;4.342;2023-05-19T10:22:40;18.20;91.40
34833;DHT22;55941;50.800;4.342;2023-05-19T10:25:08;18.40;91.30
34833;DHT22;55941;50.800;4.342;2023-05-19T10:30:22;18.30;90.60
34833;DHT22;55941;50.800;4.342;2023-05-19T10:32:50;18.30;91.00
34833;DHT22;55941;50.800;4.342;2023-05-19T10:35:58;18.30;91.20
34833;DHT22;55941;50.800;4.342;2023-05-19T10:44:10;18.50;90.30
34833;DHT22;55941;50.800;4.342;2023-05-19T10:46:39;18.60;91.00
34833;DHT22;55941;50.800;4.342;2023-05-19T10:49:06;18.80;90.50
34833;DHT22;55941;50.800;4.342;2023-05-19T10:51:33;18.90;89.40
34833;DHT22;55941;50.800;4.342;2023-05-19T10:54:39;19.20;89.40
34833;DHT22;55941;50.800;4.342;2023-05-19T10:57:14;19.30;89.40
34833;DHT22;55941;50.800;4.342;2023-05-19T10:59:41;19.60;88.80
34833;DHT22;55941;50.800;4.342;2023-05-19T11:02:09;20.00;88.10
34833;DHT22;55941;50.800;4.342;2023-05-19T11:04:48;20.20;85.60
34833;DHT22;55941;50.800;4.342;2023-05-19T11:07:22;20.20;85.80
34833;DHT22;55941;50.800;4.342;2023-05-19T11:09:52;20.40;84.80
34833;DHT22;55941;50.800;4.342;2023-05-19T11:12:22;20.70;85.00
34833;DHT22;55941;50.800;4.342;2023-05-19T11:14:52;21.10;82.30
34833;DHT22;55941;50.800;4.342;2023-05-19T11:17:18;21.30;79.80
34833;DHT22;55941;50.800;4.342;2023-05-19T11:19:56;21.50;80.40
34833;DHT22;55941;50.800;4.342;2023-05-19T11:22:25;21.90;77.70
34833;DHT22;55941;50.800;4.342;2023-05-19T11:24:53;22.00;76.90
34833;DHT22;55941;50.800;4.342;2023-05-19T11:27:32;21.90;80.90
34833;DHT22;55941;50.800;4.342;2023-05-19T11:30:08;22.30;77.20
34833;DHT22;55941;50.800;4.342;2023-05-19T11:32:39;22.80;75.50
34833;DHT22;55941;50.800;4.342;2023-05-19T11:35:08;22.90;74.90
34833;DHT22;55941;50.800;4.342;2023-05-19T11:37:34;23.50;72.40
34833;DHT22;55941;50.800;4.342;2023-05-19T11:40:04;23.80;71.60
34833;DHT22;55941;50.800;4.342;2023-05-19T11:42:34;23.80;71.40
34833;DHT22;55941;50.800;4.342;2023-05-19T11:45:01;23.90;70.30
34833;DHT22;55941;50.800;4.342;2023-05-19T11:47:29;24.40;67.20
34833;DHT22;55941;50.800;4.342;2023-05-19T11:49:55;24.50;65.20
34833;DHT22;55941;50.800;4.342;2023-05-19T11:52:21;24.40;66.00
34833;DHT22;55941;50.800;4.342;2023-05-19T11:54:47;24.60;64.60
34833;DHT22;55941;50.800;4.342;2023-05-19T11:57:13;24.80;68.30
34833;DHT22;55941;50.800;4.342;2023-05-19T11:59:40;24.80;65.60
34833;DHT22;55941;50.800;4.342;2023-05-19T12:02:20;24.70;65.00
34833;DHT22;55941;50.800;4.342;2023-05-19T12:04:47;24.80;64.80
34833;DHT22;55941;50.800;4.342;2023-05-19T12:07:18;24.90;66.40
34833;DHT22;55941;50.800;4.342;2023-05-19T12:09:45;25.30;63.70
34833;DHT22;55941;50.800;4.342;2023-05-19T12:12:21;25.90;61.90
34833;DHT22;55941;50.800;4.342;2023-05-19T12:14:51;26.70;58.70
34833;DHT22;55941;50.800;4.342;2023-05-19T12:17:19;27.10;59.00
34833;DHT22;55941;50.800;4.342;2023-05-19T12:19:46;27.20;59.30
34833;DHT22;55941;50.800;4.342;2023-05-19T12:22:13;27.20;57.30
34833;DHT22;55941;50.800;4.342;2023-05-19T12:24:39;27.30;55.90
34833;DHT22;55941;50.800;4.342;2023-05-19T12:27:24;27.20;56.70
34833;DHT22;55941;50.800;4.342;2023-05-19T12:29:54;27.50;57.00
34833;DHT22;55941;50.800;4.342;2023-05-19T12:32:26;27.80;54.90
34833;DHT22;55941;50.800;4.342;2023-05-19T12:34:55;28.20;55.50
34833;DHT22;55941;50.800;4.342;2023-05-19T12:37:23;28.50;55.00
34833;DHT22;55941;50.800;4.342;2023-05-19T12:39:50;28.80;53.70
34833;DHT22;55941;50.800;4.342;2023-05-19T12:42:17;28.30;53.90
34833;DHT22;55941;50.800;4.342;2023-05-19T12:44:44;27.50;54.20
34833;DHT22;55941;50.800;4.342;2023-05-19T12:47:14;27.80;54.90
34833;DHT22;55941;50.800;4.342;2023-05-19T12:50:00;27.90;52.70
34833;DHT22;55941;50.800;4.342;2023-05-19T12:52:28;27.80;52.90
34833;DHT22;55941;50.800;4.342;2023-05-19T12:54:58;28.30;50.40
34833;DHT22;55941;50.800;4.342;2023-05-19T12:57:25;28.80;50.40
34833;DHT22;55941;50.800;4.342;2023-05-19T12:59:51;28.80;49.30
34833;DHT22;55941;50.800;4.342;2023-05-19T13:02:18;28.80;49.70
34833;DHT22;55941;50.800;4.342;2023-05-19T13:04:44;29.30;49.20
34833;DHT22;55941;50.800;4.342;2023-05-19T13:07:10;29.20;49.30
34833;DHT22;55941;50.800;4.342;2023-05-19T13:09:35;29.20;50.40
34833;DHT22;55941;50.800;4.342;2023-05-19T13:12:02;29.40;47.00
34833;DHT22;55941;50.800;4.342;2023-05-19T13:14:29;29.60;48.00
34833;DHT22;55941;50.800;4.342;2023-05-19T13:16:54;29.70;47.10
34833;DHT22;55941;50.800;4.342;2023-05-19T13:19:20;30.00;47.10
34833;DHT22;55941;50.800;4.342;2023-05-19T13:21:46;29.80;46.10
34833;DHT22;55941;50.800;4.342;2023-05-19T13:24:12;29.90;48.30
34833;DHT22;55941;50.800;4.342;2023-05-19T13:26:39;30.10;46.20
34833;DHT22;55941;50.800;4.342;2023-05-19T13:29:07;30.30;46.20
34833;DHT22;55941;50.800;4.342;2023-05-19T13:31:33;30.10;44.90
34833;DHT22;55941;50.800;4.342;2023-05-19T13:33:58;29.90;45.20
34833;DHT22;55941;50.800;4.342;2023-05-19T13:36:25;29.30;46.20
34833;DHT22;55941;50.800;4.342;2023-05-19T13:38:52;29.60;46.10
34833;DHT22;55941;50.800;4.342;2023-05-19T13:41:27;30.10;45.10
34833;DHT22;55941;50.800;4.342;2023-05-19T13:43:57;30.00;44.80
34833;DHT22;55941;50.800;4.342;2023-05-19T13:46:25;30.30;45.60
34833;DHT22;55941;50.800;4.342;2023-05-19T13:48:51;30.20;44.50
34833;DHT22;55941;50.800;4.342;2023-05-19T13:51:18;30.10;44.50
34833;DHT22;55941;50.800;4.342;2023-05-19T13:53:44;29.40;44.80
34833;DHT22;55941;50.800;4.342;2023-05-19T13:56:11;29.00;44.30
34833;DHT22;55941;50.800;4.342;2023-05-19T13:58:36;28.50;45.30
34833;DHT22;55941;50.800;4.342;2023-05-19T14:01:02;28.50;46.80
34833;DHT22;55941;50.800;4.342;2023-05-19T14:03:28;28.30;46.80
34833;DHT22;55941;50.800;4.342;2023-05-19T14:05:55;28.40;47.70
34833;DHT22;55941;50.800;4.342;2023-05-19T14:08:21;28.60;46.70
34833;DHT22;55941;50.800;4.342;2023-05-19T14:10:49;28.90;45.90
34833;DHT22;55941;50.800;4.342;2023-05-19T14:13:15;28.60;45.20
34833;DHT22;55941;50.800;4.342;2023-05-19T14:15:40;28.90;46.20
34833;DHT22;55941;50.800;4.342;2023-05-19T14:18:07;29.10;44.60
34833;DHT22;55941;50.800;4.342;2023-05-19T14:20:35;29.20;45.00
34833;DHT22;55941;50.800;4.342;2023-05-19T14:23:02;29.10;44.90
34833;DHT22;55941;50.800;4.342;2023-05-19T14:25:29;28.00;45.50
34833;DHT22;55941;50.800;4.342;2023-05-19T14:27:58;27.90;45.50
34833;DHT22;55941;50.800;4.342;2023-05-19T14:30:24;27.80;45.70
34833;DHT22;55941;50.800;4.342;2023-05-19T14:32:50;28.00;46.20
34833;DHT22;55941;50.800;4.342;2023-05-19T14:35:15;28.20;46.30
34833;DHT22;55941;50.800;4.342;2023-05-19T14:37:43;28.80;44.80
34833;DHT22;55941;50.800;4.342;2023-05-19T14:40:11;27.20;46.20
34833;DHT22;55941;50.800;4.342;2023-05-19T14:42:37;27.70;46.40
34833;DHT22;55941;50.800;4.342;2023-05-19T14:45:04;28.60;45.40
34833;DHT22;55941;50.800;4.342;2023-05-19T14:47:33;29.60;44.20
34833;DHT22;55941;50.800;4.342;2023-05-19T14:50:00;30.10;43.00
34833;DHT22;55941;50.800;4.342;2023-05-19T14:52:25;30.30;42.90
34833;DHT22;55941;50.800;4.342;2023-05-19T14:54:51;30.70;42.40
34833;DHT22;55941;50.800;4.342;2023-05-19T14:57:17;31.30;43.00
34833;DHT22;55941;50.800;4.342;2023-05-19T14:59:44;31.40;41.60
34833;DHT22;55941;50.800;4.342;2023-05-19T15:02:09;31.50;40.60
34833;DHT22;55941;50.800;4.342;2023-05-19T15:04:37;31.40;41.30
34833;DHT22;55941;50.800;4.342;2023-05-19T15:07:03;31.30;41.30
34833;DHT22;55941;50.800;4.342;2023-05-19T15:09:29;31.50;40.30
34833;DHT22;55941;50.800;4.342;2023-05-19T15:11:56;30.40;40.60
34833;DHT22;55941;50.800;4.342;2023-05-19T15:14:24;29.20;42.30
34833;DHT22;55941;50.800;4.342;2023-05-19T15:16:50;29.50;42.50
34833;DHT22;55941;50.800;4.342;2023-05-19T15:19:17;30.00;42.40
34833;DHT22;55941;50.800;4.342;2023-05-19T15:21:43;30.50;41.70
34833;DHT22;55941;50.800;4.342;2023-05-19T15:24:10;30.40;40.90
34833;DHT22;55941;50.800;4.342;2023-05-19T15:26:36;30.80;40.90
34833;DHT22;55941;50.800;4.342;2023-05-19T15:29:02;31.50;40.30
34833;DHT22;55941;50.800;4.342;2023-05-19T15:31:28;31.30;40.60
34833;DHT22;55941;50.800;4.342;2023-05-19T15:33:55;31.30;39.00
34833;DHT22;55941;50.800;4.342;2023-05-19T15:36:22;31.50;39.30
34833;DHT22;55941;50.800;4.342;2023-05-19T15:38:48;31.40;38.80
34833;DHT22;55941;50.800;4.342;2023-05-19T15:41:14;31.70;38.50
34833;DHT22;55941;50.800;4.342;2023-05-19T15:43:41;31.70;38.50
34833;DHT22;55941;50.800;4.342;2023-05-19T15:46:07;31.60;38.30
34833;DHT22;55941;50.800;4.342;2023-05-19T15:48:34;31.40;37.90
34833;DHT22;55941;50.800;4.342;2023-05-19T15:51:00;31.50;38.30
34833;DHT22;55941;50.800;4.342;2023-05-19T15:53:26;31.30;38.70
34833;DHT22;55941;50.800;4.342;2023-05-19T15:55:53;31.50;39.10